西安 の空港の天気 - METARとTAF

西安咸陽国際空港 ( ZLXY / XIY ) - 中国 陝西省西安市
飛行場実況気象(Metar)
観測時間01/22 02:00 CST (01/21 18:00 UTC)
風向・風速静穏 0m/s
視程1600m
天気現象もや
なし
気温-2℃
湿度93%
気圧1018hPa
METARZLXY 211800Z 00000MPS 1600 BR NSC M02/M03 Q1018 NOSIG
過去の天気等 Google飛行場航空写真 Wunderground天気予報

過去48時間のMETAR

飛行場予報(TAF)
発表時間: 1/21 23:06 CST (1/21 15:06 UTC)
予報対象時間: 22日2時 CST ~ 23日2時 CST
風向・風速北東 3m/s
視程2,000m
天気現象もや
なし
22日13時 CST ~ 22日14時 CST に徐々に
視程3,000m
天気現象煙霧
22日21時 CST ~ 22日22時 CST に徐々に
視程2,400m
天気現象もや
TAF ZLXY 211506Z 2118/2218 04003MPS 2000 BR NSC TX09/2207Z TNM04/23Z
BECMG 2205/2206 3000 HZ
BECMG 2213/2214 2400 BR